createdAt,value
2023-02-23T00:02:09.039Z,11.60
2023-02-23T00:04:38.379Z,13.00
2023-02-23T00:07:06.539Z,12.60
2023-02-23T00:09:37.336Z,13.70
2023-02-23T00:12:09.811Z,13.10
2023-02-23T00:14:38.502Z,12.80
2023-02-23T00:17:14.928Z,12.60
2023-02-23T00:19:44.017Z,13.30
2023-02-23T00:22:12.917Z,12.70
2023-02-23T00:24:42.975Z,13.10
2023-02-23T00:27:17.599Z,12.90
2023-02-23T00:29:49.542Z,12.70
2023-02-23T00:32:21.668Z,12.50
2023-02-23T00:34:52.521Z,13.60
2023-02-23T00:37:22.964Z,12.50
2023-02-23T00:39:52.163Z,13.40
2023-02-23T00:42:20.662Z,12.90
2023-02-23T00:44:49.420Z,13.40
2023-02-23T00:47:17.454Z,13.60
2023-02-23T00:49:45.495Z,13.30
2023-02-23T00:52:14.882Z,13.70
2023-02-23T00:54:43.110Z,13.20
2023-02-23T00:57:11.095Z,13.20
2023-02-23T00:59:39.133Z,14.10
2023-02-23T01:02:07.104Z,14.40
2023-02-23T01:04:35.234Z,13.70
2023-02-23T01:07:06.512Z,12.60
2023-02-23T01:09:35.282Z,13.60
2023-02-23T01:12:07.679Z,12.30
2023-02-23T01:14:38.137Z,13.30
2023-02-23T01:17:07.566Z,13.20
2023-02-23T01:19:37.796Z,13.50
2023-02-23T01:22:05.778Z,14.80
2023-02-23T01:24:33.680Z,13.80
2023-02-23T01:27:05.758Z,13.00
2023-02-23T01:29:34.919Z,14.50
2023-02-23T01:32:04.673Z,14.20
2023-02-23T01:34:33.184Z,13.90
2023-02-23T01:37:01.084Z,13.30
2023-02-23T01:39:32.605Z,13.40
2023-02-23T01:42:00.563Z,13.60
2023-02-23T01:44:31.244Z,14.90
2023-02-23T01:46:59.204Z,14.20
2023-02-23T01:49:30.830Z,15.70
2023-02-23T01:52:06.896Z,13.90
2023-02-23T01:54:39.401Z,15.10
2023-02-23T01:57:11.449Z,14.80
2023-02-23T01:59:42.647Z,14.70
2023-02-23T02:02:13.486Z,14.10
2023-02-23T02:04:46.344Z,13.10
2023-02-23T02:07:18.733Z,14.10
2023-02-23T02:10:11.171Z,10.80
2023-02-23T02:12:39.765Z,13.60
2023-02-23T02:15:17.296Z,15.10
2023-02-23T02:18:28.409Z,14.00
2023-02-23T02:21:35.324Z,15.30
2023-02-23T02:24:43.289Z,15.10
2023-02-23T02:27:30.539Z,15.20
2023-02-23T02:30:20.248Z,14.90
2023-02-23T02:33:00.153Z,15.50
2023-02-23T02:35:38.205Z,14.80
2023-02-23T02:38:32.407Z,14.50
2023-02-23T02:41:14.260Z,14.10
2023-02-23T02:43:52.095Z,14.10
2023-02-23T02:46:41.580Z,15.80
2023-02-23T02:49:36.308Z,14.40
2023-02-23T02:52:07.115Z,15.00
2023-02-23T02:54:43.831Z,14.70
2023-02-23T02:57:13.820Z,14.30
2023-02-23T03:00:02.760Z,15.50
2023-02-23T03:02:56.123Z,14.90
2023-02-23T03:05:49.292Z,15.30
2023-02-23T03:09:10.989Z,15.30
2023-02-23T03:12:06.036Z,15.40
2023-02-23T03:15:04.418Z,15.00
2023-02-23T03:18:03.569Z,15.40
2023-02-23T03:20:51.192Z,15.20
2023-02-23T03:23:54.023Z,15.70
2023-02-23T03:27:10.391Z,14.70
2023-02-23T03:30:00.134Z,14.70
2023-02-23T03:33:12.798Z,16.50
2023-02-23T03:36:11.891Z,15.30
2023-02-23T03:39:06.095Z,15.70
2023-02-23T03:41:56.299Z,15.50
2023-02-23T03:44:50.365Z,17.20
2023-02-23T03:47:43.122Z,16.20
2023-02-23T03:50:37.279Z,14.90
2023-02-23T03:53:26.843Z,14.50
2023-02-23T03:56:16.170Z,15.60
2023-02-23T03:59:09.166Z,14.80
2023-02-23T04:01:57.441Z,16.90
2023-02-23T04:04:47.324Z,16.10
2023-02-23T04:07:37.294Z,15.90
2023-02-23T04:10:25.287Z,15.10
2023-02-23T04:13:17.004Z,13.70
2023-02-23T04:15:58.984Z,14.90
2023-02-23T04:18:30.352Z,15.60
2023-02-23T04:20:59.520Z,16.00
2023-02-23T04:23:28.890Z,16.20
2023-02-23T04:25:57.807Z,16.10
2023-02-23T04:28:27.699Z,14.90
2023-02-23T04:30:55.934Z,15.90
2023-02-23T04:33:25.683Z,15.00
2023-02-23T04:35:54.412Z,16.70
2023-02-23T04:38:23.460Z,16.20
2023-02-23T04:40:51.499Z,15.50
2023-02-23T04:43:20.067Z,16.50
2023-02-23T04:45:48.096Z,14.90
2023-02-23T04:48:15.992Z,16.40
2023-02-23T04:50:43.979Z,15.20
2023-02-23T04:53:12.114Z,15.10
2023-02-23T04:55:40.043Z,15.70
2023-02-23T04:58:13.768Z,15.40
2023-02-23T05:00:41.734Z,16.50
2023-02-23T05:03:09.869Z,15.70
2023-02-23T05:05:38.656Z,15.50
2023-02-23T05:08:06.714Z,16.40
2023-02-23T05:10:35.491Z,15.40
2023-02-23T05:13:03.461Z,15.30
2023-02-23T05:15:31.423Z,16.00
2023-02-23T05:17:59.592Z,14.80
2023-02-23T05:20:27.780Z,15.00
2023-02-23T05:22:55.744Z,16.50
2023-02-23T05:25:23.813Z,16.00
2023-02-23T05:27:51.855Z,15.50
2023-02-23T05:30:19.759Z,16.60
2023-02-23T05:32:47.813Z,15.40
2023-02-23T05:35:15.697Z,17.80
2023-02-23T05:37:44.722Z,16.00
2023-02-23T05:40:13.156Z,15.90
2023-02-23T05:42:41.060Z,15.80
2023-02-23T05:45:09.064Z,15.70
2023-02-23T05:47:39.014Z,16.90
2023-02-23T05:50:10.172Z,16.30
2023-02-23T05:52:42.098Z,17.20
2023-02-23T05:55:11.898Z,17.10
2023-02-23T05:57:41.275Z,15.40
2023-02-23T06:00:11.342Z,15.80
2023-02-23T06:02:40.147Z,15.90
2023-02-23T06:05:09.918Z,17.30
2023-02-23T06:07:38.444Z,16.30
2023-02-23T06:10:07.030Z,16.40
2023-02-23T06:12:35.084Z,17.00
2023-02-23T06:15:03.238Z,16.30
2023-02-23T06:17:31.084Z,17.20
2023-02-23T06:19:59.856Z,16.90
2023-02-23T06:22:28.043Z,17.10
2023-02-23T06:24:55.944Z,17.90
2023-02-23T06:27:23.920Z,17.30
2023-02-23T06:29:51.749Z,18.40
2023-02-23T06:32:19.707Z,15.10
2023-02-23T06:34:48.299Z,17.60
2023-02-23T06:37:16.404Z,18.20
2023-02-23T06:39:44.257Z,17.80
2023-02-23T06:42:12.202Z,17.60
2023-02-23T06:44:40.193Z,16.70
2023-02-23T06:47:08.349Z,17.20
2023-02-23T06:49:37.175Z,17.10
2023-02-23T06:52:05.155Z,16.40
2023-02-23T06:54:34.316Z,17.10
2023-02-23T06:57:02.177Z,17.10
2023-02-23T06:59:30.666Z,17.00
2023-02-23T07:01:58.824Z,17.70
2023-02-23T07:04:26.824Z,18.70
2023-02-23T07:06:54.664Z,17.40
2023-02-23T07:09:22.741Z,16.80
2023-02-23T07:11:50.794Z,18.00
2023-02-23T07:14:26.404Z,17.10
2023-02-23T07:19:23.551Z,16.80
2023-02-23T07:21:51.519Z,17.70
2023-02-23T07:24:19.640Z,17.20
2023-02-23T07:26:49.515Z,16.90
2023-02-23T07:29:17.930Z,17.90
2023-02-23T07:31:46.384Z,18.00
2023-02-23T07:34:14.466Z,17.30
2023-02-23T07:36:42.343Z,18.70
2023-02-23T07:39:10.620Z,17.40
2023-02-23T07:41:38.785Z,18.00
2023-02-23T07:44:11.326Z,16.50
2023-02-23T07:46:39.337Z,16.70
2023-02-23T07:49:07.464Z,17.70
2023-02-23T07:51:35.440Z,17.70
2023-02-23T07:54:05.393Z,18.60
2023-02-23T07:56:33.848Z,17.60
2023-02-23T07:59:02.471Z,17.60
2023-02-23T08:01:31.146Z,18.70
2023-02-23T08:03:59.505Z,18.10
2023-02-23T08:06:27.484Z,17.60
2023-02-23T08:08:55.405Z,17.00
2023-02-23T08:11:23.552Z,17.70
2023-02-23T08:13:51.519Z,17.10
2023-02-23T08:16:19.709Z,16.80
2023-02-23T08:18:47.935Z,16.80
2023-02-23T08:21:15.844Z,17.60
2023-02-23T08:23:44.896Z,16.70
2023-02-23T08:26:12.898Z,16.50
2023-02-23T08:28:45.123Z,18.70
2023-02-23T08:31:14.447Z,19.20
2023-02-23T08:33:42.583Z,17.90
2023-02-23T08:36:10.525Z,17.20
2023-02-23T08:38:38.531Z,17.90
2023-02-23T08:41:06.796Z,17.90
2023-02-23T08:43:34.708Z,18.10
2023-02-23T08:46:03.118Z,16.60
2023-02-23T08:48:31.246Z,17.10
2023-02-23T08:51:00.059Z,16.20
2023-02-23T08:53:29.863Z,16.90
2023-02-23T08:56:00.032Z,16.80
2023-02-23T08:58:31.130Z,17.80
2023-02-23T09:01:00.190Z,17.40
2023-02-23T09:03:30.772Z,16.80
2023-02-23T09:06:08.018Z,16.30
2023-02-23T09:08:36.818Z,16.40
2023-02-23T09:11:05.579Z,20.30
2023-02-23T09:13:33.911Z,19.80
2023-02-23T09:16:04.035Z,21.50
2023-02-23T09:18:32.798Z,19.20
2023-02-23T09:21:07.498Z,17.90
2023-02-23T09:23:36.985Z,17.20
2023-02-23T09:26:07.111Z,17.50
2023-02-23T09:28:35.942Z,18.20
2023-02-23T09:31:12.765Z,18.30
2023-02-23T09:33:41.862Z,18.50
2023-02-23T09:36:17.976Z,21.40
2023-02-23T09:42:04.029Z,18.90
2023-02-23T09:44:53.600Z,18.60
2023-02-23T09:47:32.704Z,18.70
2023-02-23T09:50:06.308Z,18.20
2023-02-23T09:52:45.087Z,17.70
2023-02-23T09:55:15.203Z,19.30
2023-02-23T09:57:47.672Z,17.50
2023-02-23T10:00:27.476Z,18.30
2023-02-23T10:03:08.913Z,19.30
2023-02-23T10:05:44.053Z,18.10
2023-02-23T10:08:22.625Z,17.90
2023-02-23T10:11:19.979Z,17.60
2023-02-23T10:14:00.703Z,21.20
2023-02-23T10:16:50.905Z,19.30
2023-02-23T10:19:37.325Z,17.00
2023-02-23T10:22:08.965Z,18.80
2023-02-23T10:24:43.785Z,17.80
2023-02-23T10:27:21.223Z,17.90
2023-02-23T10:29:52.835Z,18.20
2023-02-23T10:32:27.505Z,19.00
2023-02-23T10:34:56.992Z,17.60
2023-02-23T10:37:25.994Z,17.70
2023-02-23T10:39:53.973Z,18.20
2023-02-23T10:42:29.998Z,18.30
2023-02-23T10:44:59.517Z,18.60
2023-02-23T10:47:31.692Z,18.00
2023-02-23T10:49:59.723Z,17.50
2023-02-23T10:52:43.802Z,17.70
2023-02-23T10:55:30.748Z,18.40
2023-02-23T10:58:25.489Z,17.60
2023-02-23T11:00:58.690Z,18.50
2023-02-23T11:03:37.886Z,19.70
2023-02-23T11:06:06.943Z,19.10
2023-02-23T11:08:39.735Z,23.10
2023-02-23T11:11:17.186Z,18.30
2023-02-23T11:13:48.133Z,17.90
2023-02-23T11:16:22.690Z,18.30
2023-02-23T11:18:59.928Z,17.00
2023-02-23T11:21:35.835Z,18.70
2023-02-23T11:24:25.556Z,18.20
2023-02-23T11:26:58.081Z,17.70
2023-02-23T11:29:42.885Z,17.60
2023-02-23T11:32:23.937Z,19.20
2023-02-23T11:35:21.062Z,18.20
2023-02-23T11:37:49.950Z,16.90
2023-02-23T11:40:22.767Z,18.20
2023-02-23T11:43:12.699Z,17.80
2023-02-23T11:45:56.532Z,17.90
2023-02-23T11:48:33.169Z,18.10
2023-02-23T11:51:02.045Z,16.70
2023-02-23T11:53:31.548Z,18.50
2023-02-23T11:56:02.938Z,17.70
2023-02-23T11:58:39.469Z,18.60
2023-02-23T12:01:14.295Z,18.50
2023-02-23T12:03:49.673Z,18.50
2023-02-23T12:06:34.090Z,18.50
2023-02-23T12:09:29.947Z,19.00
2023-02-23T12:12:10.145Z,18.20
2023-02-23T12:14:49.880Z,18.30
2023-02-23T12:17:26.891Z,19.30
2023-02-23T12:20:27.447Z,17.80
2023-02-23T12:23:06.629Z,17.80
2023-02-23T12:26:05.169Z,17.60
2023-02-23T12:28:42.689Z,17.50
2023-02-23T12:31:35.062Z,18.10
2023-02-23T12:34:11.225Z,17.30
2023-02-23T12:36:56.005Z,17.90
2023-02-23T12:39:38.921Z,17.80
2023-02-23T12:42:35.970Z,17.00
2023-02-23T12:45:06.911Z,17.70
2023-02-23T12:48:03.878Z,20.80
2023-02-23T12:50:38.516Z,22.20
2023-02-23T12:53:42.829Z,20.80
2023-02-23T12:56:35.616Z,30.90
2023-02-23T12:59:16.138Z,27.90
2023-02-23T13:01:47.203Z,26.20
2023-02-23T13:04:49.453Z,119.10
2023-02-23T13:07:41.933Z,34.70
2023-02-23T13:10:23.273Z,23.80
2023-02-23T13:13:00.338Z,50.60
2023-02-23T13:15:50.908Z,30.20
2023-02-23T13:18:27.680Z,130.40
2023-02-23T13:21:35.134Z,71.80
2023-02-23T13:24:07.258Z,59.50
2023-02-23T13:26:46.909Z,65.10
2023-02-23T13:29:34.309Z,35.70
2023-02-23T13:32:05.246Z,24.00
2023-02-23T13:34:36.527Z,21.50
2023-02-23T13:37:07.549Z,20.90
2023-02-23T13:39:54.119Z,20.10
2023-02-23T13:42:44.331Z,19.30
2023-02-23T13:45:25.870Z,18.50
2023-02-23T13:47:59.094Z,19.00
2023-02-23T13:50:46.855Z,19.70
2023-02-23T13:53:37.326Z,24.40
2023-02-23T13:56:15.527Z,22.00
2023-02-23T13:58:51.580Z,21.60
2023-02-23T14:01:29.842Z,20.20
2023-02-23T14:04:01.885Z,22.10
2023-02-23T14:06:34.660Z,20.30
2023-02-23T14:09:17.591Z,21.70
2023-02-23T14:11:51.085Z,21.70
2023-02-23T14:14:46.941Z,19.90
2023-02-23T14:17:14.735Z,21.70
2023-02-23T14:20:13.286Z,19.30
2023-02-23T14:23:16.377Z,20.40
2023-02-23T14:25:45.619Z,23.40
2023-02-23T14:28:30.857Z,26.00
2023-02-23T14:31:20.520Z,58.80
2023-02-23T14:33:52.490Z,36.20
2023-02-23T14:36:23.547Z,27.30
2023-02-23T14:39:00.660Z,57.90
2023-02-23T14:41:50.572Z,54.70
2023-02-23T14:44:34.320Z,35.00
2023-02-23T14:47:28.826Z,38.10
2023-02-23T14:50:02.167Z,40.40
2023-02-23T14:52:36.879Z,29.40
2023-02-23T14:55:29.888Z,29.50
2023-02-23T14:57:59.061Z,22.30
2023-02-23T15:00:32.752Z,26.40
2023-02-23T15:03:03.637Z,31.00
2023-02-23T15:05:56.320Z,31.20
2023-02-23T15:08:30.935Z,30.80
2023-02-23T15:11:11.080Z,29.20
2023-02-23T15:13:47.270Z,29.90
2023-02-23T15:16:24.209Z,33.40
2023-02-23T15:18:53.413Z,26.20
2023-02-23T15:21:24.115Z,33.60
2023-02-23T15:23:59.732Z,27.80
2023-02-23T15:26:35.383Z,33.20
2023-02-23T15:29:35.938Z,42.30
2023-02-23T15:32:16.475Z,49.00
2023-02-23T15:34:45.027Z,61.00
2023-02-23T15:37:20.137Z,49.10
2023-02-23T15:39:59.016Z,43.70
2023-02-23T15:42:41.210Z,40.40
2023-02-23T15:45:24.615Z,33.30
2023-02-23T15:47:54.378Z,32.00
2023-02-23T15:50:36.519Z,45.30
2023-02-23T15:53:20.538Z,48.90
2023-02-23T15:55:48.829Z,40.10
2023-02-23T15:58:26.070Z,36.40
2023-02-23T16:01:06.230Z,35.30
2023-02-23T16:03:44.376Z,34.50
2023-02-23T16:06:37.130Z,32.30
2023-02-23T16:09:06.323Z,26.90
2023-02-23T16:11:36.679Z,27.60
2023-02-23T16:14:06.818Z,25.90
2023-02-23T16:16:35.833Z,22.70
2023-02-23T16:19:05.129Z,23.20
2023-02-23T16:21:33.263Z,21.40
2023-02-23T16:24:09.224Z,20.90
2023-02-23T16:26:47.309Z,18.90
2023-02-23T16:29:22.584Z,19.90
2023-02-23T16:31:58.185Z,18.90
2023-02-23T16:34:37.296Z,19.40
2023-02-23T16:37:18.081Z,20.50
2023-02-23T16:39:46.242Z,29.20
2023-02-23T16:42:28.400Z,47.30
2023-02-23T16:44:57.316Z,92.50
2023-02-23T16:47:40.458Z,142.00
2023-02-23T16:50:20.584Z,95.10
2023-02-23T16:52:54.453Z,181.40
2023-02-23T16:55:26.358Z,178.80
2023-02-23T16:57:59.280Z,110.10
2023-02-23T17:00:30.789Z,94.80
2023-02-23T17:03:00.878Z,60.40
2023-02-23T17:05:30.271Z,35.70
2023-02-23T17:07:59.254Z,37.70
2023-02-23T17:10:32.840Z,35.20
2023-02-23T17:13:04.424Z,36.50
2023-02-23T17:15:36.351Z,33.70
2023-02-23T17:18:05.789Z,34.90
2023-02-23T17:20:34.045Z,43.00
2023-02-23T17:23:02.828Z,40.30
2023-02-23T17:25:31.034Z,43.00
2023-02-23T17:28:00.141Z,37.30
2023-02-23T17:30:28.678Z,36.60
2023-02-23T17:32:58.731Z,30.90
2023-02-23T17:35:27.206Z,24.80
2023-02-23T17:37:55.400Z,22.30
2023-02-23T17:40:34.718Z,25.00
2023-02-23T17:43:06.259Z,25.80
2023-02-23T17:45:34.216Z,26.80
2023-02-23T17:48:02.161Z,26.20
2023-02-23T17:50:30.185Z,25.20
2023-02-23T17:52:58.309Z,23.90
2023-02-23T17:55:26.213Z,22.20
2023-02-23T17:57:54.038Z,23.30
2023-02-23T18:00:22.162Z,23.30
2023-02-23T18:02:50.208Z,22.20
2023-02-23T18:05:18.662Z,24.50
2023-02-23T18:07:48.497Z,25.30
2023-02-23T18:10:17.089Z,39.40
2023-02-23T18:12:45.382Z,28.50
2023-02-23T18:15:13.511Z,26.30
2023-02-23T18:17:41.506Z,29.30
2023-02-23T18:20:15.290Z,31.80
2023-02-23T18:22:44.505Z,46.30
2023-02-23T18:25:25.254Z,44.00
2023-02-23T18:27:55.422Z,39.80
2023-02-23T18:30:24.932Z,44.70
2023-02-23T18:33:00.922Z,50.30
2023-02-23T18:35:36.145Z,83.60
2023-02-23T18:38:05.967Z,91.60
2023-02-23T18:40:35.014Z,83.10
2023-02-23T18:43:03.560Z,77.00
2023-02-23T18:45:31.706Z,69.10
2023-02-23T18:47:59.695Z,46.90
2023-02-23T18:50:28.210Z,45.20
2023-02-23T18:52:59.110Z,39.60
2023-02-23T18:55:26.983Z,42.80
2023-02-23T18:57:54.843Z,32.30
2023-02-23T19:00:23.515Z,29.30
2023-02-23T19:02:51.548Z,31.50
2023-02-23T19:05:21.699Z,35.20
2023-02-23T19:07:50.256Z,33.50
2023-02-23T19:10:18.386Z,37.00
2023-02-23T19:12:46.643Z,42.30
2023-02-23T19:15:14.545Z,55.00
2023-02-23T19:17:42.422Z,35.50
2023-02-23T19:20:14.739Z,39.90
2023-02-23T19:22:43.498Z,44.70
2023-02-23T19:25:14.735Z,45.10
2023-02-23T19:27:43.289Z,43.90
2023-02-23T19:30:12.268Z,77.00
2023-02-23T19:32:40.846Z,47.00
2023-02-23T19:35:11.073Z,45.60
2023-02-23T19:37:40.147Z,40.90
2023-02-23T19:40:09.217Z,49.80
2023-02-23T19:42:43.033Z,49.00
2023-02-23T19:45:15.052Z,48.60
2023-02-23T19:47:43.879Z,59.50
2023-02-23T19:50:13.877Z,65.00
2023-02-23T19:52:44.661Z,65.50
2023-02-23T19:55:13.554Z,65.10
2023-02-23T19:57:42.112Z,69.80
2023-02-23T20:00:12.191Z,69.80
2023-02-23T20:02:44.579Z,68.90
2023-02-23T20:05:15.469Z,72.00
2023-02-23T20:07:43.849Z,69.10
2023-02-23T20:10:16.709Z,71.60
2023-02-23T20:12:44.741Z,82.40
2023-02-23T20:15:15.015Z,100.70
2023-02-23T20:17:43.114Z,87.50
2023-02-23T20:20:12.071Z,81.40
2023-02-23T20:22:45.108Z,85.80
2023-02-23T20:25:16.545Z,86.10
2023-02-23T20:27:44.657Z,80.40
2023-02-23T20:30:14.131Z,84.10
2023-02-23T20:32:43.126Z,86.80
2023-02-23T20:35:15.155Z,97.80
2023-02-23T20:37:43.700Z,97.80
2023-02-23T20:40:17.571Z,96.80
2023-02-23T20:42:48.048Z,92.50
2023-02-23T20:45:19.294Z,104.60
2023-02-23T20:47:53.159Z,114.80
2023-02-23T20:50:34.075Z,107.90
2023-02-23T20:53:03.662Z,132.70
2023-02-23T20:55:32.549Z,124.60
2023-02-23T20:58:00.448Z,125.00
2023-02-23T21:00:29.757Z,118.80
2023-02-23T21:03:02.665Z,124.60
2023-02-23T21:05:36.641Z,154.00
2023-02-23T21:08:07.436Z,176.90
2023-02-23T21:10:38.541Z,157.30
2023-02-23T21:13:10.468Z,190.30
2023-02-23T21:15:42.900Z,139.50
2023-02-23T21:18:11.885Z,120.70
2023-02-23T21:20:40.550Z,122.00
2023-02-23T21:23:08.419Z,100.10
2023-02-23T21:25:36.381Z,107.50
2023-02-23T21:28:04.222Z,82.80
2023-02-23T21:30:32.298Z,180.50
2023-02-23T21:33:00.281Z,131.30
2023-02-23T21:35:28.448Z,167.70
2023-02-23T21:37:56.973Z,101.00
2023-02-23T21:40:24.981Z,119.40
2023-02-23T21:42:53.326Z,74.80
2023-02-23T21:45:21.500Z,87.90
2023-02-23T21:47:49.711Z,134.90
2023-02-23T21:50:19.861Z,76.70
2023-02-23T21:52:48.845Z,100.20
2023-02-23T21:55:21.805Z,88.30
2023-02-23T21:57:51.820Z,64.90
2023-02-23T22:00:21.588Z,101.10
2023-02-23T22:02:51.233Z,59.50
2023-02-23T22:05:20.361Z,66.90
2023-02-23T22:07:53.432Z,49.80
2023-02-23T22:10:24.571Z,54.40
2023-02-23T22:12:56.330Z,48.60
2023-02-23T22:15:27.245Z,65.00
2023-02-23T22:17:56.334Z,67.30
2023-02-23T22:20:25.477Z,68.00
2023-02-23T22:22:53.430Z,65.40
2023-02-23T22:25:21.320Z,60.50
2023-02-23T22:27:49.350Z,57.50
2023-02-23T22:30:20.358Z,59.70
2023-02-23T22:32:48.630Z,47.00
2023-02-23T22:35:16.858Z,55.00
2023-02-23T22:37:44.769Z,56.70
2023-02-23T22:40:18.744Z,48.40
2023-02-23T22:42:49.555Z,84.00
2023-02-23T22:45:18.653Z,54.20
2023-02-23T22:47:46.692Z,52.20
2023-02-23T22:50:18.247Z,51.00
2023-02-23T22:52:46.861Z,51.60
2023-02-23T22:55:14.993Z,59.50
2023-02-23T22:57:43.122Z,49.70
2023-02-23T23:00:14.672Z,76.10
2023-02-23T23:02:42.646Z,59.40
2023-02-23T23:05:12.910Z,92.40
2023-02-23T23:07:41.514Z,112.90
2023-02-23T23:10:12.205Z,94.60
2023-02-23T23:12:40.414Z,60.10
2023-02-23T23:15:15.056Z,58.70
2023-02-23T23:17:48.426Z,115.90
2023-02-23T23:20:25.874Z,154.80
2023-02-23T23:22:57.164Z,112.20
2023-02-23T23:25:25.882Z,136.00
2023-02-23T23:27:54.755Z,90.70
2023-02-23T23:30:29.076Z,61.30
2023-02-23T23:32:57.862Z,100.70
2023-02-23T23:35:26.184Z,82.60
2023-02-23T23:37:54.185Z,108.20
2023-02-23T23:40:24.693Z,95.20
2023-02-23T23:42:53.133Z,113.90
2023-02-23T23:45:25.272Z,83.40
2023-02-23T23:47:53.208Z,125.20
2023-02-23T23:50:26.910Z,75.10
2023-02-23T23:52:57.145Z,61.70
2023-02-23T23:55:31.046Z,147.90
2023-02-23T23:58:00.437Z,69.90
